Time;durP1;ratioP1;P1;durP2;ratioP2;P2;SDS_P1;SDS_P2;PMS_P1;PMS_P2;Temp;Humidity;BMP_temperature;BMP_pressure;BME280_temperature;BME280_humidity;BME280_pressure;Samples;Min_cycle;Max_cycle;Signal;HPM_P1;HPM_P2
2021/09/30 00:00:08;;;;;;;9.10;5.72;;;;;;;12.09;85.45;94204.63;5071776;28;20462;-49
2021/09/30 00:02:34;;;;;;;6.88;4.43;;;;;;;12.17;85.92;94210.94;5071689;28;20033;-49
2021/09/30 00:04:59;;;;;;;5.63;4.75;;;;;;;12.12;85.37;94192.47;5070485;28;20059;-48
2021/09/30 00:07:25;;;;;;;8.68;5.60;;;;;;;11.92;84.91;94167.56;5071659;28;20052;-49
2021/09/30 00:09:50;;;;;;;7.68;5.65;;;;;;;12.14;85.14;94211.31;5071571;28;20066;-48
2021/09/30 00:12:20;;;;;;;8.05;5.35;;;;;;;12.08;84.57;94210.69;5071561;28;20419;-49
2021/09/30 00:14:52;;;;;;;11.27;5.78;;;;;;;12.01;83.90;94208.59;5071480;28;20105;-49
2021/09/30 00:34:02;;;;;;;9.73;6.38;;;;;;;11.83;84.63;94204.00;5071183;28;20039;-48
2021/09/30 00:42:03;;;;;;;13.60;6.18;;;;;;;11.81;84.84;94203.78;5070864;28;20067;-49
2021/09/30 00:47:38;;;;;;;14.55;7.00;;;;;;;11.85;84.84;94204.19;5071017;28;20112;-49
2021/09/30 01:18:39;;;;;;;29.35;9.93;;;;;;;11.16;85.39;94177.06;5070372;28;20036;-50
2021/09/30 01:21:25;;;;;;;15.75;7.78;;;;;;;11.32;86.24;94179.47;5068746;28;20569;-49
2021/09/30 02:23:32;;;;;;;12.50;7.03;;;;;;;11.38;85.36;94193.16;5072681;28;20068;-49
2021/09/30 03:00:37;;;;;;;11.82;8.10;;;;;;;11.43;82.17;94211.66;5073026;28;20093;-49
2021/09/30 03:03:03;;;;;;;11.95;8.40;;;;;;;11.40;82.77;94201.69;5071353;28;20033;-51
2021/09/30 03:05:29;;;;;;;14.75;8.80;;;;;;;11.25;82.91;94196.72;5071760;28;20025;-49
2021/09/30 03:07:54;;;;;;;16.77;9.38;;;;;;;11.25;83.90;94207.78;5072514;28;20025;-51
2021/09/30 03:10:20;;;;;;;9.80;7.70;;;;;;;10.93;83.77;94157.47;5071201;28;20040;-52
2021/09/30 03:12:48;;;;;;;12.90;8.65;;;;;;;11.20;84.09;94202.34;5071320;28;20028;-49
2021/09/30 03:18:00;;;;;;;10.13;7.80;;;;;;;11.09;85.05;94208.09;5072721;28;20040;-49
2021/09/30 03:20:31;;;;;;;13.00;8.57;;;;;;;10.97;85.41;94217.91;5070839;28;20035;-48
2021/09/30 03:23:21;;;;;;;10.90;7.05;;;;;;;10.96;85.91;94222.69;5071020;28;20093;-50
2021/09/30 03:25:48;;;;;;;15.82;9.40;;;;;;;10.84;86.42;94213.13;5071348;28;20067;-49
2021/09/30 03:28:16;;;;;;;12.68;9.43;;;;;;;10.91;86.95;94220.78;5071316;28;20039;-50
2021/09/30 03:30:42;;;;;;;12.00;8.68;;;;;;;10.89;86.93;94206.03;5071279;28;20099;-48
2021/09/30 03:33:08;;;;;;;15.75;8.18;;;;;;;11.00;86.08;94222.38;5071225;28;20028;-49
2021/09/30 03:35:35;;;;;;;12.23;9.13;;;;;;;10.95;85.96;94210.16;5070818;28;20028;-49
2021/09/30 03:38:02;;;;;;;12.75;10.27;;;;;;;10.98;86.14;94217.38;5071041;28;20024;-48
2021/09/30 03:40:28;;;;;;;11.98;10.18;;;;;;;11.13;86.46;94219.59;5072247;28;20441;-50
2021/09/30 03:42:53;;;;;;;12.85;9.60;;;;;;;11.19;85.30;94223.00;5071674;28;20040;-49
2021/09/30 03:45:18;;;;;;;10.63;9.38;;;;;;;11.17;84.51;94225.53;5072105;28;20040;-49
2021/09/30 03:47:44;;;;;;;13.88;12.38;;;;;;;11.12;85.49;94209.81;5071773;28;20029;-49
2021/09/30 03:50:16;;;;;;;12.93;10.75;;;;;;;11.16;86.15;94215.75;5072040;28;20028;-52
2021/09/30 03:55:28;;;;;;;18.10;11.68;;;;;;;11.20;85.95;94208.63;5071714;28;20133;-51
2021/09/30 04:00:39;;;;;;;17.25;11.98;;;;;;;11.36;85.22;94221.38;5071905;28;20042;-49
2021/09/30 04:03:04;;;;;;;14.35;10.38;;;;;;;11.23;85.25;94207.56;5071360;28;20033;-48
2021/09/30 04:05:30;;;;;;;20.65;12.68;;;;;;;11.47;86.04;94223.16;5070884;28;20028;-50
2021/09/30 04:07:55;;;;;;;16.33;10.20;;;;;;;11.46;84.91;94215.41;5071298;28;20047;-50
2021/09/30 04:10:21;;;;;;;14.20;11.48;;;;;;;11.53;84.95;94221.00;5071276;28;20112;-49
2021/09/30 04:12:46;;;;;;;12.50;10.68;;;;;;;11.48;84.50;94229.44;5071614;28;20102;-49
2021/09/30 04:15:12;;;;;;;18.48;12.07;;;;;;;11.59;85.13;94223.63;5071500;28;20420;-48
2021/09/30 04:17:37;;;;;;;14.07;10.77;;;;;;;11.58;85.48;94222.91;5071196;28;20656;-48
2021/09/30 04:20:04;;;;;;;20.75;13.68;;;;;;;11.65;85.75;94224.25;5071047;28;20035;-49
2021/09/30 04:22:29;;;;;;;17.20;12.90;;;;;;;11.63;85.65;94218.53;5070904;28;20103;-50
2021/09/30 04:24:54;;;;;;;16.35;14.75;;;;;;;11.66;84.82;94226.47;5071369;28;20107;-52
2021/09/30 04:27:20;;;;;;;13.02;9.65;;;;;;;11.33;85.15;94182.97;5071281;28;20505;-53
2021/09/30 04:29:45;;;;;;;10.70;9.70;;;;;;;11.72;83.91;94229.16;5061500;28;20021;-50
2021/09/30 04:32:11;;;;;;;13.50;10.02;;;;;;;11.74;84.00;94229.34;5069548;28;20054;-49
2021/09/30 04:34:36;;;;;;;14.60;9.23;;;;;;;11.65;83.61;94227.75;5069730;28;20031;-51
2021/09/30 04:37:02;;;;;;;11.68;9.50;;;;;;;11.74;84.71;94229.34;5070850;28;20024;-50
2021/09/30 04:39:27;;;;;;;13.50;9.50;;;;;;;11.52;84.60;94224.31;5070850;28;20024;-49
2021/09/30 04:41:53;;;;;;;9.13;8.23;;;;;;;11.31;84.05;94215.94;5069624;28;20024;-49
2021/09/30 04:44:20;;;;;;;10.82;8.70;;;;;;;11.28;84.76;94217.03;5069077;28;20123;-51
2021/09/30 04:46:46;;;;;;;14.90;10.43;;;;;;;11.22;85.90;94217.13;5069219;28;20089;-50
2021/09/30 04:49:11;;;;;;;12.40;10.57;;;;;;;11.39;86.39;94231.34;5069202;28;20028;-51
2021/09/30 04:51:37;;;;;;;11.88;10.60;;;;;;;11.07;85.80;94194.09;5069159;28;20465;-51
2021/09/30 04:54:03;;;;;;;18.23;11.40;;;;;;;11.28;87.23;94236.38;5068937;28;20462;-52
2021/09/30 04:56:29;;;;;;;13.23;10.68;;;;;;;11.38;86.30;94234.66;5069919;28;20028;-50
2021/09/30 04:58:55;;;;;;;13.40;11.82;;;;;;;11.45;86.31;94231.22;5070570;28;20028;-51
2021/09/30 05:01:20;;;;;;;15.82;11.80;;;;;;;10.96;86.98;94184.00;5070778;28;20146;-51
2021/09/30 05:03:45;;;;;;;15.38;11.65;;;;;;;11.28;87.32;94233.63;5070452;28;20115;-49
2021/09/30 05:06:11;;;;;;;14.45;11.15;;;;;;;11.57;87.27;94240.75;5070488;28;20036;-51
2021/09/30 05:08:37;;;;;;;14.43;11.30;;;;;;;11.77;86.09;94233.81;5070764;28;20025;-52
2021/09/30 05:11:03;;;;;;;12.45;10.70;;;;;;;11.81;85.78;94239.75;5070407;28;20074;-50
2021/09/30 05:13:39;;;;;;;16.50;11.10;;;;;;;11.94;85.39;94242.47;5070703;28;20024;-50
2021/09/30 05:16:06;;;;;;;22.27;13.32;;;;;;;12.02;85.08;94244.03;5070680;28;20032;-50
2021/09/30 05:18:32;;;;;;;11.57;10.38;;;;;;;11.97;84.14;94233.84;5068749;28;20025;-53
2021/09/30 05:20:58;;;;;;;14.00;10.68;;;;;;;12.12;83.79;94247.84;5070034;28;20074;-49
2021/09/30 05:23:24;;;;;;;37.00;11.77;;;;;;;12.15;83.92;94251.53;5070474;28;20055;-52
2021/09/30 05:25:50;;;;;;;12.05;9.63;;;;;;;12.16;83.67;94258.56;5070586;28;20514;-51
2021/09/30 05:28:16;;;;;;;12.85;11.55;;;;;;;12.18;83.41;94256.75;5070536;28;20025;-52
2021/09/30 05:30:41;;;;;;;12.65;10.88;;;;;;;11.87;84.10;94213.44;5070218;28;20055;-49
2021/09/30 05:33:07;;;;;;;17.27;11.35;;;;;;;12.22;83.79;94258.41;5070197;28;20028;-51
2021/09/30 05:35:32;;;;;;;24.95;11.93;;;;;;;12.25;83.91;94260.88;5069996;28;20029;-50
2021/09/30 05:37:58;;;;;;;13.50;10.93;;;;;;;12.16;82.97;94259.31;5070128;28;20020;-50
2021/09/30 05:40:24;;;;;;;18.88;12.98;;;;;;;11.85;83.87;94256.75;5069859;28;20032;-50
2021/09/30 05:42:50;;;;;;;18.50;13.43;;;;;;;11.78;85.07;94240.84;5069997;28;20059;-51
2021/09/30 05:45:16;;;;;;;24.88;18.20;;;;;;;11.70;85.19;94253.84;5070014;28;20028;-52
2021/09/30 05:47:43;;;;;;;15.77;12.43;;;;;;;11.46;85.03;94221.66;5069961;28;20025;-49
2021/09/30 05:50:09;;;;;;;12.73;11.38;;;;;;;11.79;84.45;94259.66;5070008;28;20074;-51
2021/09/30 05:52:35;;;;;;;16.83;10.88;;;;;;;12.03;84.39;94261.38;5070183;28;20020;-48
2021/09/30 05:55:01;;;;;;;12.18;9.68;;;;;;;12.23;84.34;94257.16;5070263;28;20093;-51
2021/09/30 05:57:26;;;;;;;11.32;8.60;;;;;;;12.13;83.35;94243.78;5070189;28;20028;-51
2021/09/30 05:59:52;;;;;;;12.50;10.10;;;;;;;12.32;83.48;94253.91;5070151;28;20029;-52
2021/09/30 06:10:38;;;;;;;14.05;9.88;;;;;;;12.87;80.69;94269.84;5070146;28;20077;-50
2021/09/30 06:13:00;;;;;;;18.33;10.52;;;;;;;12.98;80.35;94273.59;5068598;28;20538;-49
2021/09/30 06:15:30;;;;;;;12.70;8.25;;;;;;;12.84;80.64;94273.69;5069762;28;20035;-53
2021/09/30 06:17:57;;;;;;;11.63;8.27;;;;;;;12.98;79.60;94279.16;5070006;28;20036;-50
2021/09/30 06:20:22;;;;;;;9.63;8.55;;;;;;;13.08;79.12;94274.63;5069339;28;20103;-50
2021/09/30 06:22:48;;;;;;;10.35;8.80;;;;;;;12.98;79.28;94259.75;5069575;28;20164;-50
2021/09/30 06:25:13;;;;;;;9.57;8.57;;;;;;;13.17;78.01;94288.72;5069928;28;20069;-53
2021/09/30 06:27:39;;;;;;;10.52;6.85;;;;;;;13.05;75.42;94265.38;5069951;28;20466;-50
2021/09/30 06:30:05;;;;;;;9.90;7.05;;;;;;;13.23;75.40;94285.81;5072054;28;20028;-49
2021/09/30 06:32:31;;;;;;;11.95;7.43;;;;;;;13.00;75.58;94254.41;5073434;28;20024;-51
2021/09/30 06:34:57;;;;;;;9.00;6.05;;;;;;;13.05;74.63;94300.66;5073530;28;20024;-49
2021/09/30 06:37:22;;;;;;;10.35;7.25;;;;;;;12.89;77.07;94297.00;5073535;28;20020;-50
2021/09/30 06:39:48;;;;;;;8.40;6.43;;;;;;;12.69;76.27;94297.81;5073363;28;20024;-49
2021/09/30 06:42:13;;;;;;;7.78;6.88;;;;;;;12.33;77.62;94281.06;5073288;28;20384;-50
2021/09/30 06:44:39;;;;;;;8.85;6.25;;;;;;;12.34;77.56;94298.41;5073376;28;20465;-50
2021/09/30 06:47:04;;;;;;;9.60;6.93;;;;;;;12.32;78.21;94298.97;5073337;28;20032;-49
2021/09/30 06:49:30;;;;;;;9.75;6.95;;;;;;;12.19;78.44;94287.94;5073040;28;20493;-49
2021/09/30 06:51:55;;;;;;;13.93;8.20;;;;;;;12.28;79.05;94300.56;5071654;28;20017;-50
2021/09/30 06:54:21;;;;;;;9.25;7.57;;;;;;;12.36;79.42;94298.63;5072824;28;20086;-49
2021/09/30 06:56:49;;;;;;;16.83;7.53;;;;;;;12.34;78.71;94287.34;5072776;28;20025;-50
2021/09/30 06:59:25;;;;;;;9.40;6.85;;;;;;;12.47;78.78;94290.78;5073032;28;20031;-49
2021/09/30 07:01:51;;;;;;;8.20;5.90;;;;;;;12.70;78.04;94300.03;5073042;28;20036;-49
2021/09/30 07:04:17;;;;;;;13.52;6.40;;;;;;;12.86;76.96;94292.56;5072984;28;20032;-50
2021/09/30 07:06:42;;;;;;;8.15;7.22;;;;;;;12.87;78.73;94274.66;5072932;28;20020;-50
2021/09/30 07:09:08;;;;;;;7.40;6.55;;;;;;;13.18;77.61;94295.78;5072940;28;20075;-52
2021/09/30 07:11:33;;;;;;;11.82;6.05;;;;;;;13.44;75.96;94292.78;5071618;28;20476;-51
2021/09/30 07:13:59;;;;;;;8.38;5.00;;;;;;;13.60;74.44;94305.41;5072490;28;20519;-50
2021/09/30 07:16:24;;;;;;;9.27;6.80;;;;;;;13.52;73.54;94288.00;5072754;28;20024;-51
2021/09/30 07:18:50;;;;;;;7.55;6.00;;;;;;;13.56;73.34;94301.50;5071788;28;20048;-49
2021/09/30 07:21:16;;;;;;;10.48;5.60;;;;;;;13.55;72.11;94305.59;5072269;28;20051;-50
2021/09/30 07:23:42;;;;;;;8.20;6.47;;;;;;;13.66;73.61;94289.34;5072586;28;20415;-50
2021/09/30 07:26:09;;;;;;;10.07;6.65;;;;;;;13.65;71.59;94273.25;5072274;28;20048;-49
2021/09/30 07:28:37;;;;;;;13.45;7.57;;;;;;;13.84;70.78;94301.44;5072005;28;20093;-53
2021/09/30 07:31:04;;;;;;;8.60;6.57;;;;;;;13.69;71.18;94302.13;5072098;28;20568;-50
2021/09/30 07:33:30;;;;;;;7.47;5.32;;;;;;;13.87;68.98;94305.91;5072103;28;20442;-52
2021/09/30 07:35:56;;;;;;;6.72;5.00;;;;;;;13.64;69.43;94311.34;5070678;28;20016;-50
2021/09/30 07:38:22;;;;;;;7.00;4.72;;;;;;;13.63;68.37;94303.59;5072297;28;20051;-50
2021/09/30 07:40:48;;;;;;;6.35;5.32;;;;;;;13.74;71.55;94308.81;5072225;28;20026;-50
2021/09/30 07:43:14;;;;;;;8.65;5.45;;;;;;;13.80;68.78;94309.38;5071839;28;20381;-52
2021/09/30 07:45:39;;;;;;;9.45;6.00;;;;;;;13.77;70.25;94268.13;5071873;28;20031;-50
2021/09/30 07:48:05;;;;;;;18.58;6.57;;;;;;;14.44;69.59;94306.47;5071730;28;20021;-51
2021/09/30 07:50:30;;;;;;;15.13;6.25;;;;;;;14.58;68.06;94304.97;5071837;28;20032;-50
2021/09/30 07:52:57;;;;;;;6.18;5.20;;;;;;;14.57;65.11;94294.44;5071937;28;20023;-50
2021/09/30 07:55:24;;;;;;;6.18;4.93;;;;;;;14.68;66.20;94308.72;5071944;28;20104;-50
2021/09/30 07:57:49;;;;;;;9.30;5.50;;;;;;;14.73;66.73;94313.31;5070378;28;20032;-49
2021/09/30 08:00:15;;;;;;;6.07;5.50;;;;;;;15.08;66.50;94312.41;5071504;28;20020;-50
2021/09/30 08:02:40;;;;;;;6.45;4.47;;;;;;;15.17;64.73;94302.75;5071754;28;20031;-49
2021/09/30 08:05:07;;;;;;;12.20;5.05;;;;;;;15.29;63.37;94298.28;5071741;28;20516;-49
2021/09/30 08:07:32;;;;;;;8.25;5.20;;;;;;;14.78;63.67;94303.31;5071757;28;20029;-49
2021/09/30 08:09:58;;;;;;;10.27;5.28;;;;;;;14.67;65.45;94309.25;5071520;28;20609;-53
2021/09/30 08:12:25;;;;;;;7.20;5.22;;;;;;;15.01;66.00;94313.16;5071250;28;20055;-49
2021/09/30 08:14:50;;;;;;;13.13;5.75;;;;;;;14.85;63.97;94292.22;5071570;28;20024;-49
2021/09/30 08:17:17;;;;;;;5.75;5.07;;;;;;;15.16;65.06;94307.56;5071501;28;20070;-50
2021/09/30 08:19:42;;;;;;;8.40;5.22;;;;;;;15.14;61.83;94303.84;5070795;28;20021;-50
2021/09/30 08:22:08;;;;;;;6.68;4.75;;;;;;;15.17;63.51;94284.03;5070914;28;20142;-51
2021/09/30 08:24:34;;;;;;;7.97;5.40;;;;;;;15.62;64.22;94301.94;5070903;28;20514;-52
2021/09/30 08:26:59;;;;;;;6.10;5.05;;;;;;;15.60;66.57;94313.63;5071372;28;20036;-51
2021/09/30 08:29:33;;;;;;;9.88;4.80;;;;;;;15.12;63.00;94278.63;5071218;28;20020;-52
2021/09/30 08:31:58;;;;;;;7.13;4.47;;;;;;;15.02;64.20;94309.06;5071042;28;20020;-53
2021/09/30 08:34:23;;;;;;;5.30;4.40;;;;;;;15.48;63.44;94309.03;5070829;28;20028;-52
2021/09/30 08:36:49;;;;;;;7.15;4.35;;;;;;;16.31;59.85;94306.66;5070841;28;20020;-50
2021/09/30 08:39:15;;;;;;;7.43;4.03;;;;;;;16.13;58.60;94299.50;5071099;28;20031;-49
2021/09/30 08:41:40;;;;;;;6.40;4.20;;;;;;;15.76;59.86;94297.63;5070952;28;20028;-53
2021/09/30 08:44:06;;;;;;;6.60;3.90;;;;;;;15.86;59.45;94309.66;5070690;28;20028;-49
2021/09/30 08:46:33;;;;;;;5.93;3.83;;;;;;;15.90;59.03;94307.97;5070710;28;20063;-49
2021/09/30 08:48:59;;;;;;;5.82;4.18;;;;;;;16.39;58.30;94285.06;5070749;28;20495;-49
2021/09/30 08:51:25;;;;;;;6.35;3.85;;;;;;;17.42;56.03;94293.72;5070522;28;20070;-50
2021/09/30 08:53:51;;;;;;;7.63;3.85;;;;;;;18.04;52.33;94259.69;5069414;28;20024;-49
2021/09/30 08:56:17;;;;;;;8.50;4.30;;;;;;;18.14;54.27;94293.31;5070884;28;20031;-50
2021/09/30 08:58:42;;;;;;;6.20;4.20;;;;;;;17.96;56.09;94291.84;5070670;28;20543;-49
2021/09/30 09:01:09;;;;;;;8.63;4.95;;;;;;;18.07;56.92;94297.66;5070546;28;20082;-50
2021/09/30 09:03:45;;;;;;;5.40;4.20;;;;;;;17.86;55.07;94296.63;5070705;28;20025;-50
2021/09/30 09:06:28;;;;;;;5.57;4.03;;;;;;;17.74;55.17;94298.44;5070483;28;20028;-49
2021/09/30 09:09:23;;;;;;;11.00;4.90;;;;;;;17.42;56.40;94296.50;5070410;28;20046;-51
2021/09/30 09:11:49;;;;;;;16.35;4.97;;;;;;;17.30;55.77;94292.72;5070669;28;20052;-50
2021/09/30 09:14:28;;;;;;;10.52;4.15;;;;;;;17.17;56.35;94295.84;5070386;28;20480;-52
2021/09/30 09:17:01;;;;;;;6.03;4.13;;;;;;;16.90;56.29;94294.94;5070641;28;20024;-50
2021/09/30 09:19:49;;;;;;;10.13;4.13;;;;;;;16.82;57.66;94285.91;5069959;28;20572;-51
2021/09/30 09:22:15;;;;;;;7.10;5.32;;;;;;;16.70;57.09;94296.75;5070024;28;20056;-53
2021/09/30 09:25:00;;;;;;;9.00;4.45;;;;;;;16.37;57.85;94279.28;5070575;28;20040;-51
2021/09/30 09:27:44;;;;;;;6.28;4.85;;;;;;;16.20;57.33;94293.16;5070572;28;20135;-50
2021/09/30 09:30:29;;;;;;;8.30;4.70;;;;;;;16.02;60.20;94294.38;5070258;28;20481;-50
2021/09/30 09:33:05;;;;;;;9.85;6.07;;;;;;;15.94;60.14;94296.44;5070182;28;20036;-50
2021/09/30 09:36:06;;;;;;;11.68;5.68;;;;;;;15.90;60.90;94296.81;5070143;28;20033;-49
2021/09/30 09:38:52;;;;;;;9.30;5.72;;;;;;;15.66;61.03;94297.47;5070456;28;20415;-51
2021/09/30 09:41:29;;;;;;;6.55;5.13;;;;;;;15.49;63.32;94288.97;5070382;28;20028;-49
2021/09/30 09:43:58;;;;;;;9.70;4.72;;;;;;;15.58;62.67;94302.31;5070419;28;20032;-50
2021/09/30 09:46:32;;;;;;;7.68;5.60;;;;;;;15.54;63.09;94299.19;5070007;28;20052;-50
2021/09/30 09:49:00;;;;;;;7.05;5.50;;;;;;;15.48;62.60;94298.66;5070178;28;20384;-49
2021/09/30 09:51:36;;;;;;;16.30;5.80;;;;;;;15.41;62.32;94304.19;5070306;28;20029;-49
2021/09/30 09:54:07;;;;;;;11.18;5.35;;;;;;;15.41;63.15;94304.19;5070326;28;20517;-51
2021/09/30 09:56:33;;;;;;;7.55;5.53;;;;;;;15.25;63.19;94288.81;5070031;28;20027;-53
2021/09/30 09:58:58;;;;;;;7.50;4.88;;;;;;;15.43;63.86;94298.81;5069966;28;20025;-50
2021/09/30 10:01:27;;;;;;;11.75;5.60;;;;;;;15.43;63.58;94310.72;5070118;28;20028;-50
2021/09/30 10:03:57;;;;;;;7.22;5.53;;;;;;;15.28;64.92;94301.63;5070594;28;20040;-49
2021/09/30 10:06:23;;;;;;;8.23;5.40;;;;;;;15.27;65.44;94309.22;5074020;28;20035;-49
2021/09/30 10:08:49;;;;;;;8.40;5.70;;;;;;;15.05;64.53;94296.81;5073763;28;20082;-51
2021/09/30 10:11:15;;;;;;;8.57;5.55;;;;;;;15.01;64.13;94313.16;5073625;28;20033;-50
2021/09/30 10:13:41;;;;;;;9.38;6.25;;;;;;;14.91;64.58;94308.69;5073951;28;20483;-51
2021/09/30 10:16:07;;;;;;;7.80;6.20;;;;;;;14.90;65.05;94307.97;5073523;28;20082;-50
2021/09/30 10:18:32;;;;;;;10.27;5.57;;;;;;;14.93;65.60;94306.84;5073733;28;20032;-53
2021/09/30 10:20:58;;;;;;;7.63;5.78;;;;;;;14.78;64.98;94309.63;5072949;28;20080;-49
2021/09/30 10:23:35;;;;;;;9.23;6.47;;;;;;;14.71;65.80;94310.38;5073258;28;20442;-52
2021/09/30 10:26:12;;;;;;;12.30;5.35;;;;;;;14.51;66.38;94311.25;5072284;28;20036;-53
2021/09/30 10:28:40;;;;;;;7.53;5.75;;;;;;;14.65;67.22;94306.28;5073346;28;20025;-50
2021/09/30 10:31:19;;;;;;;7.40;5.07;;;;;;;14.59;66.29;94306.47;5073317;28;20476;-53
2021/09/30 10:33:45;;;;;;;14.20;8.88;;;;;;;14.63;66.14;94306.09;5073526;28;20462;-53
2021/09/30 10:36:29;;;;;;;14.13;7.25;;;;;;;14.70;67.01;94306.13;5073216;28;20043;-53
2021/09/30 10:39:17;;;;;;;9.75;4.97;;;;;;;14.72;65.85;94303.53;5072936;28;20120;-50
2021/09/30 10:41:42;;;;;;;12.27;5.82;;;;;;;14.69;65.48;94303.88;5073256;28;20151;-50
2021/09/30 10:44:16;;;;;;;16.00;5.63;;;;;;;14.73;66.53;94299.44;5072228;28;20048;-50
2021/09/30 10:46:42;;;;;;;11.35;5.43;;;;;;;14.67;64.34;94296.09;5073319;28;20091;-50
2021/09/30 10:49:43;;;;;;;10.85;5.47;;;;;;;14.58;64.83;94304.22;5072982;28;20033;-51
2021/09/30 10:52:11;;;;;;;9.30;5.18;;;;;;;14.42;64.66;94304.22;5072889;28;20049;-49
2021/09/30 10:54:39;;;;;;;11.27;6.28;;;;;;;14.40;66.28;94306.81;5072864;28;20036;-51
2021/09/30 10:57:35;;;;;;;7.43;4.88;;;;;;;14.49;64.38;94293.69;5073200;28;20116;-50
2021/09/30 11:00:10;;;;;;;8.98;5.70;;;;;;;14.70;66.27;94297.78;5072510;28;20081;-52
2021/09/30 11:03:10;;;;;;;9.57;5.60;;;;;;;14.74;64.59;94295.38;5072313;28;20078;-49
2021/09/30 11:05:42;;;;;;;7.10;5.20;;;;;;;14.71;65.09;94290.91;5072929;28;20054;-49
2021/09/30 11:08:16;;;;;;;9.65;5.35;;;;;;;14.78;65.52;94290.19;5072993;28;20051;-49
2021/09/30 11:11:06;;;;;;;10.88;5.35;;;;;;;14.79;65.80;94297.19;5072861;28;20419;-52
2021/09/30 11:13:35;;;;;;;6.75;5.55;;;;;;;14.92;66.41;94299.06;5072373;28;20031;-49
2021/09/30 11:16:00;;;;;;;;;;;;;;;15.03;65.93;94298.69;5073063;28;20468;-50
2021/09/30 11:18:49;;;;;;;8.45;5.28;;;;;;;15.00;65.64;94272.00;5072687;28;19966;-49
2021/09/30 11:21:34;;;;;;;8.23;5.43;;;;;;;15.14;65.91;94292.72;5052436;28;20444;-51
2021/09/30 11:24:02;;;;;;;9.73;6.78;;;;;;;15.24;66.70;94292.91;5052616;28;20470;-51
2021/09/30 11:26:33;;;;;;;5.85;5.25;;;;;;;15.24;64.04;94290.88;5052279;28;20037;-51
2021/09/30 11:29:22;;;;;;;8.57;5.03;;;;;;;15.20;62.91;94290.53;5052110;28;20031;-51
2021/09/30 11:31:51;;;;;;;10.95;5.53;;;;;;;15.09;62.74;94286.06;5052430;28;20096;-53
2021/09/30 11:34:41;;;;;;;9.38;5.47;;;;;;;15.03;64.17;94291.06;5052452;28;20155;-50
2021/09/30 11:37:15;;;;;;;8.75;5.88;;;;;;;14.87;64.54;94295.19;5052333;28;20086;-52
2021/09/30 11:39:41;;;;;;;6.65;5.75;;;;;;;14.90;65.02;94298.91;5052371;28;20134;-52
2021/09/30 11:42:07;;;;;;;7.47;5.22;;;;;;;14.91;63.86;94284.44;5052148;28;20460;-51
2021/09/30 11:44:32;;;;;;;7.68;5.93;;;;;;;14.74;64.83;94270.34;5052281;28;20056;-50
2021/09/30 11:46:59;;;;;;;12.02;6.70;;;;;;;14.58;64.06;94249.41;5051890;28;20405;-48
2021/09/30 11:49:26;;;;;;;16.13;7.05;;;;;;;14.68;66.32;94269.81;5052151;28;20025;-53
2021/09/30 11:51:53;;;;;;;9.50;6.30;;;;;;;14.82;66.02;94284.97;5051904;28;20025;-53
2021/09/30 11:54:21;;;;;;;10.45;6.40;;;;;;;14.77;66.19;94294.25;5051769;28;20021;-50
2021/09/30 11:56:50;;;;;;;7.97;6.13;;;;;;;14.78;66.22;94289.44;5052021;28;20032;-53
2021/09/30 11:59:18;;;;;;;8.23;6.15;;;;;;;14.75;66.22;94287.78;5051965;28;20381;-52
2021/09/30 12:01:47;;;;;;;12.07;5.72;;;;;;;14.76;66.21;94286.47;5051830;28;20017;-52
2021/09/30 12:04:39;;;;;;;7.18;5.47;;;;;;;14.79;66.98;94285.38;5051558;28;20520;-52
2021/09/30 12:07:06;;;;;;;7.70;5.88;;;;;;;14.74;66.25;94287.03;5051812;28;20100;-50
2021/09/30 12:09:33;;;;;;;16.20;7.25;;;;;;;14.68;66.40;94285.72;5069984;28;20043;-50
2021/09/30 12:12:02;;;;;;;9.38;6.22;;;;;;;14.64;66.79;94274.97;5071338;28;20044;-49
2021/09/30 12:14:38;;;;;;;;;;;;;;;14.68;66.90;94283.69;5072225;28;20020;-50
2021/09/30 12:17:07;;;;;;;7.13;6.43;;;;;;;14.73;67.09;94287.56;5071310;28;19915;-49
2021/09/30 12:19:45;;;;;;;6.53;5.90;;;;;;;14.75;67.84;94280.16;5071029;28;20087;-53
2021/09/30 12:22:12;;;;;;;7.57;6.35;;;;;;;14.75;67.45;94282.22;5070938;28;20119;-52
2021/09/30 12:25:20;;;;;;;9.05;6.50;;;;;;;14.68;67.13;94289.25;5071054;28;20026;-49
2021/09/30 12:27:48;;;;;;;6.80;5.63;;;;;;;14.61;67.44;94283.69;5049807;28;20040;-50
2021/09/30 12:30:16;;;;;;;13.27;6.47;;;;;;;14.44;67.25;94282.16;5071343;28;20107;-50
2021/09/30 12:32:48;;;;;;;11.15;7.50;;;;;;;14.44;68.17;94281.44;5071289;28;20151;-51
2021/09/30 12:35:22;;;;;;;21.08;10.70;;;;;;;14.39;68.36;94280.34;5071232;28;20028;-52
2021/09/30 12:37:52;;;;;;;21.63;12.57;;;;;;;14.50;68.32;94279.22;5070832;28;20024;-51
2021/09/30 12:40:40;;;;;;;;;;;;;;;14.62;69.42;94269.22;5071657;28;20032;-51
2021/09/30 12:43:14;;;;;;;10.57;7.45;;;;;;;14.55;69.09;94278.31;5067619;28;19935;-51
2021/09/30 12:45:57;;;;;;;11.02;8.23;;;;;;;14.40;67.52;94267.91;5070801;28;20032;-53
2021/09/30 12:48:23;;;;;;;16.05;12.60;;;;;;;14.43;67.95;94274.41;5070746;28;20016;-50
2021/09/30 12:50:58;;;;;;;15.15;11.60;;;;;;;14.49;67.73;94271.47;5070682;28;20512;-50
2021/09/30 12:53:25;;;;;;;21.42;12.07;;;;;;;14.58;68.10;94276.44;5070928;28;20128;-51
2021/09/30 12:55:52;;;;;;;13.90;11.30;;;;;;;14.62;69.44;94277.56;5070649;28;20028;-51
2021/09/30 12:58:28;;;;;;;11.10;9.80;;;;;;;14.63;69.10;94273.50;5069672;28;20020;-51
2021/09/30 13:00:56;;;;;;;13.05;9.05;;;;;;;14.69;69.89;94278.84;5070514;28;20086;-51
2021/09/30 13:03:22;;;;;;;13.10;6.85;;;;;;;14.65;68.50;94270.91;5070758;28;20565;-51
2021/09/30 13:05:53;;;;;;;7.38;6.22;;;;;;;14.62;68.80;94277.56;5070389;28;20078;-50
2021/09/30 13:08:42;;;;;;;8.10;6.38;;;;;;;14.37;68.90;94226.63;5070256;28;20099;-50
2021/09/30 13:11:30;;;;;;;14.20;7.93;;;;;;;14.68;69.17;94275.34;5070419;28;20085;-51
2021/09/30 13:14:13;;;;;;;7.40;6.43;;;;;;;14.65;68.91;94270.16;5070356;28;20035;-50
2021/09/30 13:16:40;;;;;;;13.63;6.75;;;;;;;14.52;69.75;94257.19;5070557;28;20024;-49
2021/09/30 13:19:05;;;;;;;10.73;7.90;;;;;;;14.59;69.34;94269.59;5070275;28;20025;-49
2021/09/30 13:21:54;;;;;;;8.57;7.38;;;;;;;14.59;70.01;94272.38;5068864;28;20056;-50
2021/09/30 13:24:20;;;;;;;9.73;8.27;;;;;;;14.27;70.00;94228.44;5070380;28;20028;-51
2021/09/30 13:26:45;;;;;;;8.23;6.30;;;;;;;14.50;70.13;94265.34;5070245;28;20086;-50
2021/09/30 13:29:10;;;;;;;11.43;6.35;;;;;;;14.37;70.14;94252.38;5070234;28;20024;-49
2021/09/30 13:31:36;;;;;;;11.05;6.30;;;;;;;14.41;70.79;94252.00;5070167;28;20021;-53
2021/09/30 13:34:02;;;;;;;9.77;7.68;;;;;;;14.50;71.02;94270.16;5070524;28;20028;-49
2021/09/30 13:36:27;;;;;;;14.32;10.20;;;;;;;14.50;71.50;94264.59;5070381;28;20501;-50
2021/09/30 13:38:53;;;;;;;10.73;7.97;;;;;;;14.46;71.62;94255.88;5072942;28;20442;-53
2021/09/30 13:41:18;;;;;;;12.93;9.27;;;;;;;14.46;71.79;94267.00;5074538;28;20460;-50
2021/09/30 13:43:44;;;;;;;20.88;13.02;;;;;;;14.44;72.02;94268.28;5072932;28;20476;-49
2021/09/30 13:46:09;;;;;;;12.75;10.07;;;;;;;14.37;71.81;94254.41;5074234;28;20031;-49
2021/09/30 13:48:34;;;;;;;10.40;7.20;;;;;;;14.35;71.60;94257.75;5074127;28;20024;-50
2021/09/30 13:51:00;;;;;;;8.65;7.22;;;;;;;14.31;72.11;94251.78;5074100;28;20024;-49
2021/09/30 13:53:25;;;;;;;10.13;7.90;;;;;;;14.33;71.53;94251.25;5073991;28;20012;-50
2021/09/30 13:55:51;;;;;;;12.55;7.97;;;;;;;14.29;71.43;94253.66;5074003;28;20024;-49
2021/09/30 13:58:16;;;;;;;10.10;7.45;;;;;;;14.30;71.86;94246.78;5073757;28;20028;-50
2021/09/30 14:00:42;;;;;;;8.73;6.10;;;;;;;14.33;71.26;94248.47;5073777;28;20027;-50
2021/09/30 14:03:07;;;;;;;11.50;6.55;;;;;;;14.24;71.04;94244.19;5073757;28;20051;-50
2021/09/30 14:05:33;;;;;;;7.97;6.03;;;;;;;14.06;71.92;94214.69;5074118;28;20029;-49
2021/09/30 14:07:58;;;;;;;8.68;6.35;;;;;;;14.28;71.98;94255.66;5074039;28;20399;-49
2021/09/30 14:10:24;;;;;;;8.15;6.20;;;;;;;14.06;71.69;94227.84;5074119;28;20092;-50
2021/09/30 14:12:50;;;;;;;8.07;6.70;;;;;;;14.25;72.06;94245.66;5073999;28;20420;-51
2021/09/30 14:15:15;;;;;;;7.80;6.97;;;;;;;14.19;72.23;94228.41;5073982;28;20031;-50
2021/09/30 14:17:41;;;;;;;7.65;6.78;;;;;;;14.31;72.54;94248.28;5073561;28;20542;-49
2021/09/30 14:20:09;;;;;;;13.27;8.85;;;;;;;14.28;73.02;94247.31;5073400;28;20176;-51
2021/09/30 14:22:35;;;;;;;10.02;8.30;;;;;;;14.27;73.09;94243.06;5073328;28;20535;-51